Time;durP1;ratioP1;P1;durP2;ratioP2;P2;SDS_P1;SDS_P2;PMS_P1;PMS_P2;Temp;Humidity;BMP_temperature;BMP_pressure;BME280_temperature;BME280_humidity;BME280_pressure;Samples;Min_cycle;Max_cycle;Signal;HPM_P1;HPM_P2
2022/09/16 00:01:23;;;;;;;;;;;;;;;20.25;100.00;100119.59;5032994;28;19925;-76
2022/09/16 00:03:54;;;;;;;;;;;;;;;20.21;100.00;100122.06;5033471;28;19932;-77
2022/09/16 00:06:22;;;;;;;;;;;;;;;20.31;100.00;100119.25;5033195;28;19929;-76
2022/09/16 00:08:49;;;;;;;;;;;;;;;20.42;100.00;100121.81;5033561;28;19925;-76
2022/09/16 00:11:21;;;;;;;;;;;;;;;20.50;100.00;100115.81;5033000;28;19929;-80
2022/09/16 00:13:48;;;;;;;;;;;;;;;20.38;100.00;100115.41;5023120;28;19991;-80
2022/09/16 00:16:19;;;;;;;;;;;;;;;20.27;100.00;100123.59;5032695;28;20301;-79
2022/09/16 00:18:47;;;;;;;;;;;;;;;20.13;100.00;100122.66;5033581;28;19925;-81
2022/09/16 00:21:22;;;;;;;;;;;;;;;20.03;100.00;100118.16;5032915;28;19936;-81
2022/09/16 00:23:51;;;;;;;;;;;;;;;20.08;100.00;100104.63;5030283;28;19925;-76
2022/09/16 00:26:21;;;;;;;;;;;;;;;19.87;100.00;100095.13;5013886;28;19932;-81
2022/09/16 00:28:51;;;;;;;;;;;;;;;19.77;100.00;100111.38;5015113;28;19925;-81
2022/09/16 00:31:19;;;;;;;;;;;;;;;19.92;100.00;100102.38;5011141;28;20392;-81
2022/09/16 00:33:48;;;;;;;;;;;;;;;19.99;100.00;100116.31;5006696;28;19961;-81
2022/09/16 00:36:19;;;;;;;;;;;;;;;20.12;100.00;100105.69;5023003;28;19933;-77
2022/09/16 00:38:50;;;;;;;;;;;;;;;19.97;100.00;100108.53;5020582;28;20412;-77
2022/09/16 00:41:19;;;;;;;;;;;;;;;19.98;100.00;100112.00;5036110;28;19983;-80
2022/09/16 00:43:51;;;;;;;;;;;;;;;19.95;100.00;100109.88;5033684;28;19925;-80
2022/09/16 00:46:23;;;;;;;;;;;;;;;19.85;100.00;100110.78;5010745;28;20282;-80
2022/09/16 00:48:54;;;;;;;;;;;;;;;19.95;100.00;100108.00;5015691;28;20278;-76
2022/09/16 00:51:24;;;;;;;;;;;;;;;19.64;100.00;100108.25;5015177;28;19936;-76
2022/09/16 00:53:55;;;;;;;;;;;;;;;19.70;100.00;100108.19;5017314;28;19925;-80
2022/09/16 00:56:25;;;;;;;;;;;;;;;19.72;100.00;100116.78;5014567;28;20306;-79
2022/09/16 00:59:02;;;;;;;;;;;;;;;19.70;100.00;100114.41;5020130;28;20406;-78
2022/09/16 01:01:30;;;;;;;;;;;;;;;19.92;100.00;100110.44;5021104;28;19925;-80
2022/09/16 01:04:00;;;;;;;;;;;;;;;19.66;100.00;100100.66;5024822;28;19929;-80
2022/09/16 01:06:32;;;;;;;;;;;;;;;19.34;100.00;100105.72;5009712;28;20016;-80
2022/09/16 01:09:04;;;;;;;;;;;;;;;19.48;100.00;100120.16;5010751;28;19953;-81
2022/09/16 01:11:31;;;;;;;;;;;;;;;19.59;100.00;100121.69;5017085;28;19927;-80
2022/09/16 01:16:45;;;;;;;;;;;;;;;19.59;100.00;100110.94;5003009;28;20022;-81
2022/09/16 01:19:23;;;;;;;;;;;;;;;19.36;100.00;100111.63;5014934;28;19933;-77
2022/09/16 01:21:57;;;;;;;;;;;;;;;19.18;100.00;100116.59;5030019;28;19937;-77
2022/09/16 01:24:42;;;;;;;;;;;;;;;19.44;100.00;100114.53;5035686;28;19925;-82
2022/09/16 01:27:30;;;;;;;;;;;;;;;19.39;100.00;100116.44;5035629;28;19979;-76
2022/09/16 01:30:12;;;;;;;;;;;;;;;19.55;100.00;100128.75;5035705;28;19936;-80
2022/09/16 01:32:45;;;;;;;;;;;;;;;19.23;100.00;100118.44;5029794;28;19983;-81
2022/09/16 01:35:19;;;;;;;;;;;;;;;19.48;100.00;100125.53;5025907;28;19924;-77
2022/09/16 01:38:01;;;;;;;;;;;;;;;19.80;100.00;100117.00;5035354;28;19964;-81
2022/09/16 01:40:34;;;;;;;;;;;;;;;19.46;100.00;100125.03;5022721;28;20003;-81
2022/09/16 01:43:07;;;;;;;;;;;;;;;19.55;100.00;100126.06;5032390;28;19925;-81
2022/09/16 01:45:37;;;;;;;;;;;;;;;19.78;100.00;100121.84;5025201;28;20461;-81
2022/09/16 01:48:16;;;;;;;;;;;;;;;19.72;100.00;100131.06;5032939;28;20344;-81
2022/09/16 01:50:45;;;;;;;;;;;;;;;19.76;100.00;100136.69;5020699;28;20366;-81
2022/09/16 01:53:14;;;;;;;;;;;;;;;19.64;100.00;100132.47;5019459;28;19929;-80
2022/09/16 01:55:42;;;;;;;;;;;;;;;19.35;100.00;100143.13;5031295;28;19987;-75
2022/09/16 01:58:12;;;;;;;;;;;;;;;19.38;100.00;100136.38;5034100;28;20329;-81
2022/09/16 02:00:41;;;;;;;;;;;;;;;19.27;100.00;100135.63;5151349;22;19927;-79
2022/09/16 02:03:11;;;;;;;;;;;;;;;18.89;100.00;100129.09;5037412;28;19925;-80
2022/09/16 02:05:41;;;;;;;;;;;;;;;19.00;100.00;100136.03;5042048;28;19958;-82
2022/09/16 02:08:09;;;;;;;;;;;;;;;19.12;100.00;100136.53;5047372;28;19925;-78
2022/09/16 02:10:39;;;;;;;;;;;;;;;19.15;100.00;100135.16;5044655;28;19933;-79
2022/09/16 02:13:10;;;;;;;;;;;;;;;19.16;100.00;100134.88;5045420;28;19940;-80
2022/09/16 02:15:39;;;;;;;;;;;;;;;18.97;100.00;100136.56;5043168;28;19924;-78
2022/09/16 02:18:09;;;;;;;;;;;;;;;19.16;100.00;100128.69;5038840;28;19929;-82
2022/09/16 02:20:39;;;;;;;;;;;;;;;19.04;100.00;100134.41;5035907;28;19928;-78
2022/09/16 02:23:09;;;;;;;;;;;;;;;19.01;100.00;100126.88;5042604;28;19929;-77
2022/09/16 02:25:37;;;;;;;;;;;;;;;18.94;100.00;100135.25;5043651;28;19986;-77
2022/09/16 02:28:06;;;;;;;;;;;;;;;19.03;100.00;100137.34;5046019;28;19925;-79
2022/09/16 02:30:34;;;;;;;;;;;;;;;19.24;100.00;100136.19;5046171;28;19924;-78
2022/09/16 02:33:04;;;;;;;;;;;;;;;19.38;100.00;100139.06;5039507;28;19932;-81
2022/09/16 02:35:31;;;;;;;;;;;;;;;19.51;100.00;100143.84;5034511;28;19929;-81
2022/09/16 02:38:01;;;;;;;;;;;;;;;19.37;100.00;100146.34;5038800;28;20024;-78
2022/09/16 02:40:32;;;;;;;;;;;;;;;19.23;100.00;100132.69;5036263;28;19936;-81
2022/09/16 02:42:59;;;;;;;;;;;;;;;19.15;100.00;100146.75;5044419;28;20449;-82
2022/09/16 02:45:31;;;;;;;;;;;;;;;19.37;100.00;100145.56;5039187;28;20385;-81
2022/09/16 02:48:02;;;;;;;;;;;;;;;19.55;100.00;100144.09;5040586;28;20362;-79
2022/09/16 02:50:34;;;;;;;;;;;;;;;19.49;100.00;100150.59;5048040;28;20023;-81
2022/09/16 02:53:02;;;;;;;;;;;;;;;19.43;100.00;100153.31;5023396;28;19933;-82
2022/09/16 02:55:36;;;;;;;;;;;;;;;19.56;100.00;100159.97;5042378;28;19925;-81
2022/09/16 02:58:03;;;;;;;;;;;;;;;19.68;100.00;100159.66;5046090;28;19986;-82
2022/09/16 03:00:30;;;;;;;;;;;;;;;19.71;100.00;100161.00;5044751;28;20360;-78
2022/09/16 03:02:57;;;;;;;;;;;;;;;19.70;100.00;100156.66;5038633;28;19986;-80
2022/09/16 03:05:27;;;;;;;;;;;;;;;19.81;100.00;100144.75;5044951;28;20002;-81
2022/09/16 03:07:53;;;;;;;;;;;;;;;19.88;100.00;100154.13;5044140;28;19929;-81
2022/09/16 03:10:23;;;;;;;;;;;;;;;20.22;100.00;100147.91;5045362;28;19924;-78
2022/09/16 03:12:56;;;;;;;;;;;;;;;20.25;100.00;100146.56;5036389;28;19929;-80
2022/09/16 03:15:38;;;;;;;;;;;;;;;21.40;100.00;100152.03;5047603;28;19925;-79
2022/09/16 03:18:16;;;;;;;;;;;;;;;21.32;100.00;100152.63;5043634;28;19937;-81
2022/09/16 03:20:46;;;;;;;;;;;;;;;21.82;100.00;100136.81;5036957;28;20338;-79
2022/09/16 03:23:17;;;;;;;;;;;;;;;22.63;100.00;100135.41;5016557;28;19933;-77
2022/09/16 03:25:52;;;;;;;;;;;;;;;22.93;100.00;100121.53;5040922;28;19983;-78
2022/09/16 03:28:22;;;;;;;;;;;;;;;22.94;100.00;100123.16;5034433;28;20351;-81
2022/09/16 03:30:53;;;;;;;;;;;;;;;23.34;100.00;100121.50;5042279;28;20381;-81
2022/09/16 03:33:24;;;;;;;;;;;;;;;23.72;97.66;100127.44;5039436;28;20353;-78
2022/09/16 03:35:51;;;;;;;;;;;;;;;24.29;100.00;100131.41;5044576;28;19979;-78
2022/09/16 03:38:19;;;;;;;;;;;;;;;24.19;100.00;100124.34;5040993;28;19933;-80
2022/09/16 03:40:48;;;;;;;;;;;;;;;23.90;93.24;100130.22;5051218;28;20351;-78
2022/09/16 03:43:15;;;;;;;;;;;;;;;24.09;93.74;100122.72;5043044;28;20016;-78
2022/09/16 03:45:42;;;;;;;;;;;;;;;24.11;87.04;100131.31;5043303;28;20019;-78
2022/09/16 03:48:09;;;;;;;;;;;;;;;24.17;90.76;100119.22;5040841;28;20372;-81
2022/09/16 03:50:36;;;;;;;;;;;;;;;24.08;100.00;100128.44;5036231;28;19990;-81
2022/09/16 03:53:03;;;;;;;;;;;;;;;23.83;99.05;100125.25;5033146;28;19925;-78
2022/09/16 03:55:29;;;;;;;;;;;;;;;24.07;100.00;100129.56;5040906;28;19928;-81
2022/09/16 03:57:57;;;;;;;;;;;;;;;24.39;88.76;100128.47;5045583;28;19983;-78
2022/09/16 04:00:24;;;;;;;;;;;;;;;24.56;83.01;100128.53;5044507;28;19925;-78
2022/09/16 04:02:50;;;;;;;;;;;;;;;24.66;76.39;100131.00;5049249;28;19933;-78
2022/09/16 04:05:17;;;;;;;;;;;;;;;24.56;84.75;100125.81;5040209;28;20269;-82
2022/09/16 04:07:43;;;;;;;;;;;;;;;24.53;83.21;100136.50;5042315;28;19994;-81
2022/09/16 04:10:11;;;;;;;;;;;;;;;24.80;100.00;100130.84;5042657;28;20353;-81
2022/09/16 04:12:43;;;;;;;;;;;;;;;24.58;86.94;100131.75;5044059;28;20008;-81
2022/09/16 04:15:11;;;;;;;;;;;;;;;24.81;85.57;100137.91;5043435;28;19925;-80
2022/09/16 04:17:38;;;;;;;;;;;;;;;24.89;82.69;100142.53;5041971;28;19929;-81
2022/09/16 04:20:06;;;;;;;;;;;;;;;24.89;75.60;100147.19;5046674;28;19924;-81
2022/09/16 04:22:33;;;;;;;;;;;;;;;25.04;95.81;100151.38;5047342;28;19987;-77
2022/09/16 04:24:59;;;;;;;;;;;;;;;25.05;79.85;100145.63;5041120;28;20351;-80
2022/09/16 04:27:26;;;;;;;;;;;;;;;25.24;88.48;100150.81;5047258;28;19929;-80
2022/09/16 04:29:53;;;;;;;;;;;;;;;25.20;97.37;100157.19;5045603;28;19924;-77
2022/09/16 04:32:21;;;;;;;;;;;;;;;25.05;76.46;100166.53;5043724;28;19987;-81
2022/09/16 04:34:47;;;;;;;;;;;;;;;25.04;77.24;100173.91;5043809;28;20427;-80
2022/09/16 04:37:14;;;;;;;;;;;;;;;25.08;77.62;100166.75;5044714;28;19928;-77
2022/09/16 04:39:40;;;;;;;;;;;;;;;25.22;85.68;100169.34;5044918;28;19925;-80
2022/09/16 04:42:07;;;;;;;;;;;;;;;25.27;81.15;100169.19;5046718;28;19994;-81
2022/09/16 04:44:34;;;;;;;;;;;;;;;25.43;71.12;100183.13;5046345;28;19925;-78
2022/09/16 04:47:00;;;;;;;;;;;;;;;25.52;70.70;100183.91;5044049;28;19987;-77
2022/09/16 04:49:28;;;;;;;;;;;;;;;25.46;71.81;100185.19;5046510;28;19925;-81
2022/09/16 04:51:55;;;;;;;;;;;;;;;25.63;70.39;100189.03;5028033;28;20369;-80
2022/09/16 04:54:22;;;;;;;;;;;;;;;25.47;71.48;100186.00;5047642;28;19990;-82
2022/09/16 04:56:48;;;;;;;;;;;;;;;25.70;83.53;100187.44;5041743;28;19924;-81
2022/09/16 04:59:15;;;;;;;;;;;;;;;25.55;77.88;100188.72;5045911;28;19925;-77
2022/09/16 05:01:42;;;;;;;;;;;;;;;25.59;79.63;100178.78;5042288;28;19925;-78
2022/09/16 05:04:09;;;;;;;;;;;;;;;25.63;74.37;100178.16;5047905;28;19925;-80
2022/09/16 05:06:39;;;;;;;;;;;;;;;25.61;72.22;100181.22;5045442;28;19933;-78
2022/09/16 05:09:06;;;;;;;;;;;;;;;25.54;70.93;100176.25;5039271;28;20014;-78
2022/09/16 05:11:33;;;;;;;;;;;;;;;25.64;77.47;100177.06;5047421;28;19987;-82
2022/09/16 05:14:00;;;;;;;;;;;;;;;25.43;75.71;100185.03;5047466;28;20403;-78
2022/09/16 05:16:27;;;;;;;;;;;;;;;25.45;73.86;100188.25;5045962;28;19936;-78
2022/09/16 05:18:55;;;;;;;;;;;;;;;25.48;80.74;100193.03;5045034;28;19925;-80
2022/09/16 05:21:22;;;;;;;;;;;;;;;25.52;86.92;100185.84;5043321;28;19925;-77
2022/09/16 05:23:50;;;;;;;;;;;;;;;25.51;90.93;100182.34;5051996;28;19925;-83
2022/09/16 05:26:18;;;;;;;;;;;;;;;25.55;76.80;100194.16;5045314;28;20828;-80
2022/09/16 05:28:45;;;;;;;;;;;;;;;25.68;76.17;100188.88;5050494;28;20019;-80
2022/09/16 05:31:13;;;;;;;;;;;;;;;25.59;78.08;100205.97;5047056;28;19926;-81
2022/09/16 05:33:40;;;;;;;;;;;;;;;25.61;79.81;100205.69;5044553;28;20376;-79
2022/09/16 05:36:07;;;;;;;;;;;;;;;25.63;80.72;100208.06;5038575;28;20451;-80
2022/09/16 05:38:34;;;;;;;;;;;;;;;25.76;76.65;100204.41;5043955;28;20328;-81
2022/09/16 05:41:02;;;;;;;;;;;;;;;25.88;75.79;100201.88;5054104;28;19924;-78
2022/09/16 05:43:29;;;;;;;;;;;;;;;25.79;86.94;100198.31;5045272;28;20419;-80
2022/09/16 05:46:00;;;;;;;;;;;;;;;25.94;90.96;100211.47;5039890;28;19925;-83
2022/09/16 05:48:27;;;;;;;;;;;;;;;25.82;86.42;100219.47;5051225;28;20416;-85
2022/09/16 05:50:55;;;;;;;;;;;;;;;25.54;76.67;100227.13;5055938;28;19986;-77
2022/09/16 05:53:22;;;;;;;;;;;;;;;25.79;87.58;100226.31;5043186;28;20016;-78
2022/09/16 05:55:56;;;;;;;;;;;;;;;25.73;84.05;100237.69;5029438;28;20065;-76
2022/09/16 05:58:24;;;;;;;;;;;;;;;25.95;84.58;100234.81;5032211;28;19929;-81
2022/09/16 06:00:51;;;;;;;;;;;;;;;25.86;83.16;100238.66;5019518;28;19992;-81
2022/09/16 06:03:17;;;;;;;;;;;;;;;25.65;82.29;100228.38;5037723;28;19998;-80
2022/09/16 06:05:44;;;;;;;;;;;;;;;25.82;85.85;100252.13;5044557;28;19929;-77
2022/09/16 06:08:10;;;;;;;;;;;;;;;25.93;88.48;100238.97;5040707;28;19929;-80
2022/09/16 06:10:40;;;;;;;;;;;;;;;25.91;89.99;100239.31;5046910;28;19937;-81
2022/09/16 06:13:07;;;;;;;;;;;;;;;25.90;93.15;100242.34;5036166;28;19959;-82
2022/09/16 06:15:38;;;;;;;;;;;;;;;26.14;91.82;100248.09;5045888;28;20376;-77
2022/09/16 06:18:14;;;;;;;;;;;;;;;25.96;92.18;100251.94;5046837;28;19925;-81
2022/09/16 06:20:41;;;;;;;;;;;;;;;25.64;95.38;100251.25;5042337;28;19925;-81
2022/09/16 06:23:18;;;;;;;;;;;;;;;25.73;95.74;100251.28;5036810;28;19925;-79
2022/09/16 06:25:44;;;;;;;;;;;;;;;25.74;94.07;100261.03;5044369;28;19925;-81
2022/09/16 06:28:14;;;;;;;;;;;;;;;25.54;96.08;100246.94;5042927;28;19929;-79
2022/09/16 06:30:42;;;;;;;;;;;;;;;25.87;96.35;100248.41;5042362;28;20305;-80
2022/09/16 06:33:10;;;;;;;;;;;;;;;25.87;95.87;100254.69;5048395;28;20324;-78
2022/09/16 06:35:36;;;;;;;;;;;;;;;25.77;98.97;100249.50;5041157;28;19994;-79
2022/09/16 06:38:03;;;;;;;;;;;;;;;25.69;100.00;100256.56;5044413;28;19987;-78
2022/09/16 06:40:32;;;;;;;;;;;;;;;25.74;97.42;100252.88;5031681;28;20336;-80
2022/09/16 06:42:58;;;;;;;;;;;;;;;25.83;98.83;100250.97;5044372;28;19925;-77
2022/09/16 06:45:28;;;;;;;;;;;;;;;25.73;99.22;100257.50;5045819;28;20018;-77
2022/09/16 06:48:00;;;;;;;;;;;;;;;25.57;96.11;100243.59;5045669;28;19937;-78
2022/09/16 06:50:30;;;;;;;;;;;;;;;25.28;99.50;100243.34;5045340;28;20011;-76
2022/09/16 06:52:57;;;;;;;;;;;;;;;25.71;100.00;100237.19;5014547;28;19934;-81
2022/09/16 06:55:28;;;;;;;;;;;;;;;25.37;95.69;100241.47;5041868;28;19929;-78
2022/09/16 06:58:00;;;;;;;;;;;;;;;25.64;96.14;100236.88;5046390;28;20435;-81
2022/09/16 07:00:28;;;;;;;;;;;;;;;25.80;98.04;100232.56;5045717;28;19986;-77
2022/09/16 07:02:55;;;;;;;;;;;;;;;25.87;97.25;100232.09;4996934;28;19933;-80
2022/09/16 07:05:23;;;;;;;;;;;;;;;25.99;95.82;100241.25;5003113;28;19926;-77
2022/09/16 07:07:51;;;;;;;;;;;;;;;26.12;94.70;100244.91;5001611;28;19962;-77
2022/09/16 07:10:18;;;;;;;;;;;;;;;26.33;95.43;100247.75;5001757;28;19973;-77
2022/09/16 07:12:45;;;;;;;;;;;;;;;26.07;92.05;100245.06;4985084;28;19930;-80
2022/09/16 07:15:11;;;;;;;;;;;;;;;26.20;95.25;100251.44;5005425;28;20290;-81
2022/09/16 07:17:43;;;;;;;;;;;;;;;26.32;95.90;100262.47;5004283;28;19929;-78
2022/09/16 07:20:12;;;;;;;;;;;;;;;26.65;95.06;100254.59;5000489;28;19940;-81
2022/09/16 07:22:42;;;;;;;;;;;;;;;26.43;95.01;100261.03;4998476;28;20390;-82
2022/09/16 07:25:08;;;;;;;;;;;;;;;26.39;93.66;100268.25;5005709;28;20018;-80
2022/09/16 07:27:35;;;;;;;;;;;;;;;26.21;94.05;100272.13;5004111;28;19929;-77
2022/09/16 07:30:02;;;;;;;;;;;;;;;26.52;97.22;100276.59;4999416;28;20363;-78
2022/09/16 07:32:29;;;;;;;;;;;;;;;26.62;100.00;100284.41;5003719;28;19952;-81
2022/09/16 07:35:05;;;;;;;;;;;;;;;26.82;92.04;100267.38;4992793;28;19929;-82
2022/09/16 07:37:31;;;;;;;;;;;;;;;26.86;94.40;100279.19;5005818;28;19951;-80
2022/09/16 07:40:00;;;;;;;;;;;;;;;26.78;88.99;100274.59;5002265;28;19937;-78
2022/09/16 07:42:34;;;;;;;;;;;;;;;27.37;89.01;100266.50;5004952;28;19985;-77
2022/09/16 07:45:01;;;;;;;;;;;;;;;27.10;86.92;100267.72;5005171;28;19926;-77
2022/09/16 07:47:30;;;;;;;;;;;;;;;27.53;82.61;100265.91;4999542;28;19965;-80
2022/09/16 07:49:56;;;;;;;;;;;;;;;26.49;90.83;100272.59;5010864;28;19925;-80
2022/09/16 07:52:27;;;;;;;;;;;;;;;26.77;87.43;100269.47;5006350;28;20378;-81
2022/09/16 07:54:54;;;;;;;;;;;;;;;26.30;92.34;100281.06;4996757;28;19965;-80
2022/09/16 07:57:24;;;;;;;;;;;;;;;26.78;88.30;100274.59;5007667;28;19926;-83
2022/09/16 07:59:51;;;;;;;;;;;;;;;26.54;89.32;100283.31;5003084;28;19926;-77
2022/09/16 08:02:17;;;;;;;;;;;;;;;26.77;86.54;100274.91;5028723;28;20007;-78
2022/09/16 08:04:48;;;;;;;;;;;;;;;26.99;84.54;100266.50;5042121;28;19991;-80
2022/09/16 08:07:14;;;;;;;;;;;;;;;27.18;79.35;100264.19;5043636;28;19933;-79
2022/09/16 08:09:44;;;;;;;;;;;;;;;27.25;78.51;100257.44;5035526;28;19924;-78
2022/09/16 08:12:13;;;;;;;;;;;;;;;27.18;79.99;100252.50;5042853;28;19932;-77
2022/09/16 08:14:45;;;;;;;;;;;;;;;27.66;73.83;100256.69;5043206;28;19924;-77
2022/09/16 08:17:17;;;;;;;;;;;;;;;27.75;74.57;100246.53;5030629;28;19928;-81
2022/09/16 08:19:43;;;;;;;;;;;;;;;27.60;72.36;100249.84;5043329;28;19925;-81
2022/09/16 08:22:13;;;;;;;;;;;;;;;27.11;81.38;100244.00;5029737;28;19929;-80
2022/09/16 08:24:40;;;;;;;;;;;;;;;27.83;72.77;100247.59;5037580;28;20025;-79
2022/09/16 08:27:09;;;;;;;;;;;;;;;28.40;72.30;100251.59;5041016;28;19986;-79
2022/09/16 08:29:37;;;;;;;;;;;;;;;28.18;70.47;100250.84;5042038;28;19931;-80
2022/09/16 08:32:05;;;;;;;;;;;;;;;28.40;62.92;100257.84;5034415;28;19925;-80
2022/09/16 08:34:42;;;;;;;;;;;;;;;28.97;62.95;100250.81;5037769;28;19929;-81
2022/09/16 08:37:09;;;;;;;;;;;;;;;28.46;63.05;100250.28;5033562;28;19990;-81
2022/09/16 08:39:35;;;;;;;;;;;;;;;28.56;63.31;100249.84;5041184;28;19948;-81
2022/09/16 08:42:13;;;;;;;;;;;;;;;28.80;63.63;100251.00;5035994;28;20963;-81
2022/09/16 08:44:45;;;;;;;;;;;;;;;28.11;67.02;100250.59;5031864;28;19999;-79
2022/09/16 08:47:29;;;;;;;;;;;;;;;28.25;66.57;100263.94;5029288;28;20332;-82
2022/09/16 08:49:58;;;;;;;;;;;;;;;28.63;58.06;100249.28;5027920;28;19925;-81
2022/09/16 08:52:28;;;;;;;;;;;;;;;28.07;64.90;100255.09;5025901;28;20008;-80
2022/09/16 08:54:57;;;;;;;;;;;;;;;28.50;58.34;100254.75;5029182;28;19990;-80
2022/09/16 08:57:26;;;;;;;;;;;;;;;28.37;63.28;100255.78;5031720;28;19968;-82
2022/09/16 08:59:58;;;;;;;;;;;;;;;28.35;64.58;100249.06;5024240;28;19926;-81
2022/09/16 09:02:35;;;;;;;;;;;;;;;28.88;62.75;100248.19;5033092;28;19978;-82
2022/09/16 09:05:02;;;;;;;;;;;;;;;29.50;55.75;100253.63;5036169;28;20411;-78
2022/09/16 09:07:45;;;;;;;;;;;;;;;29.08;58.65;100242.97;5040093;28;19937;-81
2022/09/16 09:10:17;;;;;;;;;;;;;;;28.49;62.89;100242.19;5036163;28;19925;-81
2022/09/16 09:12:46;;;;;;;;;;;;;;;28.22;63.68;100229.91;5040913;28;19957;-78
2022/09/16 09:15:29;;;;;;;;;;;;;;;29.07;58.57;100225.78;5046557;28;19936;-76
2022/09/16 09:18:16;;;;;;;;;;;;;;;28.82;59.48;100240.56;5048972;28;19925;-81
2022/09/16 09:20:50;;;;;;;;;;;;;;;29.17;52.58;100230.78;5044093;28;20332;-77
2022/09/16 09:23:26;;;;;;;;;;;;;;;29.26;52.99;100238.88;5037994;28;19991;-78
2022/09/16 09:25:58;;;;;;;;;;;;;;;28.26;64.04;100230.03;5030301;28;20370;-77
2022/09/16 09:28:51;;;;;;;;;;;;;;;28.76;57.09;100234.50;5032150;28;19925;-81
2022/09/16 09:31:22;;;;;;;;;;;;;;;29.44;57.46;100233.94;5043473;28;20007;-78
2022/09/16 09:33:56;;;;;;;;;;;;;;;28.86;60.36;100230.53;5035950;28;20364;-77
2022/09/16 09:36:32;;;;;;;;;;;;;;;28.53;63.18;100221.28;5039356;28;19924;-81
2022/09/16 09:39:16;;;;;;;;;;;;;;;28.58;60.30;100228.44;5043365;28;19948;-78
2022/09/16 09:41:47;;;;;;;;;;;;;;;29.36;55.29;100219.25;5035944;28;20284;-79
2022/09/16 09:44:24;;;;;;;;;;;;;;;29.81;50.03;100222.94;5044973;28;19924;-83
2022/09/16 09:46:54;;;;;;;;;;;;;;;29.93;49.66;100222.91;5042641;28;20262;-82
2022/09/16 09:49:29;;;;;;;;;;;;;;;30.18;49.64;100228.25;5044613;28;19924;-78
2022/09/16 09:51:58;;;;;;;;;;;;;;;29.22;57.76;100229.75;5036395;28;19925;-85
2022/09/16 09:54:29;;;;;;;;;;;;;;;29.40;56.25;100225.63;5039845;28;19931;-78
2022/09/16 09:56:59;;;;;;;;;;;;;;;29.15;57.43;100229.53;5044736;28;19925;-81
2022/09/16 09:59:29;;;;;;;;;;;;;;;29.64;55.93;100232.22;5044623;28;19925;-81
2022/09/16 10:01:57;;;;;;;;;;;;;;;29.97;55.35;100229.25;5042097;28;20019;-77
2022/09/16 10:04:30;;;;;;;;;;;;;;;28.62;60.69;100217.63;5042334;28;19956;-78
2022/09/16 10:07:03;;;;;;;;;;;;;;;28.93;57.58;100223.38;5039795;28;19925;-82
2022/09/16 10:09:29;;;;;;;;;;;;;;;30.16;52.85;100225.84;5037849;28;19934;-79
2022/09/16 10:11:59;;;;;;;;;;;;;;;30.30;52.67;100231.75;5044983;28;19933;-78
2022/09/16 10:14:29;;;;;;;;;;;;;;;30.19;51.08;100230.63;5036885;28;19932;-82
2022/09/16 10:16:58;;;;;;;;;;;;;;;30.55;50.65;100223.38;5048486;28;19933;-79
2022/09/16 10:19:30;;;;;;;;;;;;;;;30.57;49.08;100227.38;5044561;28;19925;-82
2022/09/16 10:22:13;;;;;;;;;;;;;;;30.74;49.07;100225.41;5034906;28;19925;-78
2022/09/16 10:24:41;;;;;;;;;;;;;;;31.45;46.23;100198.91;5031891;28;20012;-81
2022/09/16 10:27:22;;;;;;;;;;;;;;;30.68;44.25;100218.59;5026543;28;20329;-80
2022/09/16 10:30:04;;;;;;;;;;;;;;;30.43;49.00;100223.47;5036390;28;19928;-78
2022/09/16 10:32:32;;;;;;;;;;;;;;;30.42;46.85;100214.47;5030598;28;19979;-79
2022/09/16 10:35:06;;;;;;;;;;;;;;;30.54;46.88;100217.13;5031043;28;20463;-81
2022/09/16 10:37:33;;;;;;;;;;;;;;;30.71;48.18;100234.34;5037772;28;19990;-77
2022/09/16 10:40:01;;;;;;;;;;;;;;;30.37;49.71;100220.19;5049299;28;19929;-83
2022/09/16 10:42:28;;;;;;;;;;;;;;;31.23;46.54;100217.63;5046481;28;19994;-77
2022/09/16 10:45:14;;;;;;;;;;;;;;;30.56;49.54;100228.53;5040233;28;19925;-77
2022/09/16 10:47:41;;;;;;;;;;;;;;;30.29;49.82;100221.16;5039956;28;19928;-78
2022/09/16 10:50:16;;;;;;;;;;;;;;;30.16;50.37;100214.91;5043975;28;19925;-78
2022/09/16 10:52:45;;;;;;;;;;;;;;;30.12;50.53;100203.06;5043334;28;19936;-82
2022/09/16 10:55:20;;;;;;;;;;;;;;;30.80;48.70;100204.84;5043620;28;20343;-81
2022/09/16 10:57:50;;;;;;;;;;;;;;;30.79;48.95;100201.31;5040527;28;19928;-79
2022/09/16 11:00:18;;;;;;;;;;;;;;;30.29;47.00;100208.25;5048252;28;20347;-80
2022/09/16 11:03:14;;;;;;;;;;;;;;;30.46;46.28;100200.84;5047419;28;19925;-78
2022/09/16 11:05:50;;;;;;;;;;;;;;;30.13;49.16;100199.97;5044717;28;19974;-79
2022/09/16 11:08:21;;;;;;;;;;;;;;;30.33;48.21;100189.97;5037689;28;19925;-79
2022/09/16 11:10:51;;;;;;;;;;;;;;;30.67;45.69;100184.16;5043488;28;19929;-80
2022/09/16 11:13:32;;;;;;;;;;;;;;;30.64;46.17;100174.69;5033108;28;19924;-82
2022/09/16 11:16:06;;;;;;;;;;;;;;;30.61;48.38;100180.88;5035597;28;19924;-77
2022/09/16 11:18:44;;;;;;;;;;;;;;;30.66;49.55;100177.09;5030989;28;20343;-78
2022/09/16 11:21:19;;;;;;;;;;;;;;;31.24;50.29;100169.03;5038098;28;19932;-80
2022/09/16 11:23:53;;;;;;;;;;;;;;;31.03;45.52;100178.38;5039997;28;19925;-80
2022/09/16 11:26:31;;;;;;;;;;;;;;;30.67;49.58;100181.41;5044794;28;19940;-76
2022/09/16 11:29:03;;;;;;;;;;;;;;;32.45;44.21;100170.66;5045083;28;20008;-80
2022/09/16 11:31:39;;;;;;;;;;;;;;;31.32;45.78;100169.97;5036276;28;20015;-81
2022/09/16 11:34:17;;;;;;;;;;;;;;;30.79;46.18;100168.41;5042512;28;20446;-80
2022/09/16 11:36:54;;;;;;;;;;;;;;;31.18;46.38;100157.56;5042826;28;20016;-78
2022/09/16 11:39:39;;;;;;;;;;;;;;;30.94;43.66;100152.31;5043237;28;19924;-80
2022/09/16 11:42:14;;;;;;;;;;;;;;;29.92;51.47;100155.59;5038794;28;19924;-79
2022/09/16 11:44:45;;;;;;;;;;;;;;;30.92;44.28;100155.41;5042877;28;19925;-79
2022/09/16 11:47:24;;;;;;;;;;;;;;;32.34;43.88;100153.16;5039308;28;20431;-82
2022/09/16 11:49:59;;;;;;;;;;;;;;;30.46;49.09;100155.06;5043893;28;19986;-80
2022/09/16 11:52:33;;;;;;;;;;;;;;;30.07;50.79;100151.28;5043369;28;20826;-84
2022/09/16 11:55:15;;;;;;;;;;;;;;;30.69;50.02;100144.28;5042955;28;19983;-78
2022/09/16 11:57:45;;;;;;;;;;;;;;;31.03;46.54;100141.94;5034218;28;19983;-81
2022/09/16 12:00:15;;;;;;;;;;;;;;;31.99;43.18;100145.09;5024929;28;19995;-77
2022/09/16 12:02:46;;;;;;;;;;;;;;;32.45;43.29;100137.69;5031776;28;19929;-79
2022/09/16 12:05:18;;;;;;;;;;;;;;;31.83;43.46;100134.19;5042185;28;19980;-79
2022/09/16 12:07:51;;;;;;;;;;;;;;;31.23;46.33;100145.53;5036267;28;20381;-80
2022/09/16 12:10:21;;;;;;;;;;;;;;;30.17;49.46;100139.03;5044279;28;20421;-78
2022/09/16 12:15:41;;;;;;;;;;;;;;;29.36;53.80;100130.94;5037712;28;19925;-80
2022/09/16 12:18:09;;;;;;;;;;;;;;;29.86;50.33;100130.41;5044724;28;19929;-81
2022/09/16 12:20:38;;;;;;;;;;;;;;;30.55;49.39;100120.06;5033452;28;19975;-82
2022/09/16 12:23:17;;;;;;;;;;;;;;;30.73;45.53;100123.22;5040793;28;19994;-81
2022/09/16 12:25:45;;;;;;;;;;;;;;;30.12;48.10;100134.63;5035922;28;20281;-79
2022/09/16 12:28:17;;;;;;;;;;;;;;;29.80;52.40;100128.28;5045375;28;19924;-82
2022/09/16 12:30:46;;;;;;;;;;;;;;;29.76;49.55;100128.19;5034528;28;19929;-77
2022/09/16 12:33:17;;;;;;;;;;;;;;;28.80;57.09;100115.19;5041172;28;20415;-81
2022/09/16 12:35:52;;;;;;;;;;;;;;;29.36;51.49;100109.06;5046912;28;19925;-78
2022/09/16 12:38:23;;;;;;;;;;;;;;;29.45;52.97;100104.25;5038518;28;19925;-78
2022/09/16 12:41:11;;;;;;;;;;;;;;;29.43;51.32;100114.75;5046043;28;19988;-78
2022/09/16 12:43:51;;;;;;;;;;;;;;;29.31;53.73;100117.50;5032948;28;19990;-79
2022/09/16 12:46:32;;;;;;;;;;;;;;;29.41;54.37;100117.84;5037519;28;19928;-77
2022/09/16 12:49:07;;;;;;;;;;;;;;;29.16;51.84;100119.81;5041172;28;20003;-79
2022/09/16 12:51:51;;;;;;;;;;;;;;;29.53;53.90;100124.38;5046772;28;19929;-82
2022/09/16 12:54:36;;;;;;;;;;;;;;;29.57;54.52;100125.28;5010695;28;19929;-77
2022/09/16 12:57:17;;;;;;;;;;;;;;;29.39;54.06;100124.78;5047813;28;19940;-84